sensor_id;sensor_type;location;lat;lon;timestamp;pressure;altitude;pressure_sealevel;temperature;humidity
39341;BME280;25059;52.132;21.062;2023-09-19T00:01:18;99727.84;;;19.51;100.00
39341;BME280;25059;52.132;21.062;2023-09-19T00:04:04;99730.47;;;19.62;100.00
39341;BME280;25059;52.132;21.062;2023-09-19T00:06:54;99730.16;;;19.55;100.00
39341;BME280;25059;52.132;21.062;2023-09-19T00:09:38;99725.31;;;19.49;100.00
39341;BME280;25059;52.132;21.062;2023-09-19T00:12:23;99710.16;;;19.50;100.00
39341;BME280;25059;52.132;21.062;2023-09-19T00:15:07;99714.06;;;19.46;100.00
39341;BME280;25059;52.132;21.062;2023-09-19T00:17:53;99712.38;;;19.45;100.00
39341;BME280;25059;52.132;21.062;2023-09-19T00:20:38;99713.22;;;19.45;100.00
39341;BME280;25059;52.132;21.062;2023-09-19T00:23:23;99720.09;;;19.48;100.00
39341;BME280;25059;52.132;21.062;2023-09-19T00:26:08;99713.75;;;19.39;100.00
39341;BME280;25059;52.132;21.062;2023-09-19T00:28:53;99721.22;;;19.45;100.00
39341;BME280;25059;52.132;21.062;2023-09-19T00:31:38;99720.69;;;19.51;100.00
39341;BME280;25059;52.132;21.062;2023-09-19T00:34:22;99717.44;;;19.48;100.00
39341;BME280;25059;52.132;21.062;2023-09-19T00:37:07;99707.69;;;19.37;100.00
39341;BME280;25059;52.132;21.062;2023-09-19T00:39:52;99709.97;;;19.42;100.00
39341;BME280;25059;52.132;21.062;2023-09-19T00:42:36;99711.00;;;19.50;100.00
39341;BME280;25059;52.132;21.062;2023-09-19T00:45:22;99689.31;;;19.34;100.00
39341;BME280;25059;52.132;21.062;2023-09-19T00:48:06;99694.69;;;19.44;100.00
39341;BME280;25059;52.132;21.062;2023-09-19T00:50:53;99690.81;;;19.27;100.00
39341;BME280;25059;52.132;21.062;2023-09-19T00:53:38;99696.50;;;19.43;100.00
39341;BME280;25059;52.132;21.062;2023-09-19T00:56:23;99687.81;;;19.20;100.00
39341;BME280;25059;52.132;21.062;2023-09-19T00:59:08;99691.91;;;19.24;100.00
39341;BME280;25059;52.132;21.062;2023-09-19T01:01:53;99683.06;;;19.24;100.00
39341;BME280;25059;52.132;21.062;2023-09-19T01:04:39;99683.91;;;19.24;100.00
39341;BME280;25059;52.132;21.062;2023-09-19T01:07:24;99694.09;;;19.40;100.00
39341;BME280;25059;52.132;21.062;2023-09-19T01:10:11;99691.19;;;19.43;100.00
39341;BME280;25059;52.132;21.062;2023-09-19T01:22:26;99675.59;;;19.69;100.00
39341;BME280;25059;52.132;21.062;2023-09-19T01:31:39;99649.53;;;19.82;100.00
39341;BME280;25059;52.132;21.062;2023-09-19T01:34:26;99659.81;;;19.87;100.00
39341;BME280;25059;52.132;21.062;2023-09-19T01:37:11;99659.50;;;19.80;100.00
39341;BME280;25059;52.132;21.062;2023-09-19T01:39:59;99650.81;;;19.88;100.00
39341;BME280;25059;52.132;21.062;2023-09-19T01:46:06;99657.53;;;19.82;100.00
39341;BME280;25059;52.132;21.062;2023-09-19T01:54:46;99644.06;;;19.84;100.00
39341;BME280;25059;52.132;21.062;2023-09-19T01:57:40;99641.41;;;19.84;100.00
39341;BME280;25059;52.132;21.062;2023-09-19T02:00:29;99638.28;;;19.79;100.00
39341;BME280;25059;52.132;21.062;2023-09-19T02:03:15;99641.22;;;19.76;100.00
39341;BME280;25059;52.132;21.062;2023-09-19T02:06:00;99628.16;;;19.73;100.00
39341;BME280;25059;52.132;21.062;2023-09-19T02:08:45;99635.78;;;19.87;100.00
39341;BME280;25059;52.132;21.062;2023-09-19T02:11:30;99642.81;;;19.88;100.00
39341;BME280;25059;52.132;21.062;2023-09-19T02:14:14;99633.94;;;19.78;100.00
39341;BME280;25059;52.132;21.062;2023-09-19T02:16:59;99641.91;;;19.68;100.00
39341;BME280;25059;52.132;21.062;2023-09-19T02:19:44;99630.22;;;19.59;100.00
39341;BME280;25059;52.132;21.062;2023-09-19T02:22:28;99637.41;;;19.68;100.00
39341;BME280;25059;52.132;21.062;2023-09-19T02:25:13;99620.97;;;19.63;100.00
39341;BME280;25059;52.132;21.062;2023-09-19T02:27:58;99622.78;;;19.53;100.00
39341;BME280;25059;52.132;21.062;2023-09-19T02:30:42;99618.75;;;19.38;100.00
39341;BME280;25059;52.132;21.062;2023-09-19T02:33:28;99619.19;;;19.43;100.00
39341;BME280;25059;52.132;21.062;2023-09-19T02:36:16;99619.72;;;19.37;100.00
39341;BME280;25059;52.132;21.062;2023-09-19T02:39:01;99603.50;;;19.19;100.00
39341;BME280;25059;52.132;21.062;2023-09-19T02:41:46;99621.59;;;19.16;100.00
39341;BME280;25059;52.132;21.062;2023-09-19T02:44:30;99602.63;;;19.09;100.00
39341;BME280;25059;52.132;21.062;2023-09-19T02:47:15;99610.69;;;18.98;100.00
39341;BME280;25059;52.132;21.062;2023-09-19T02:50:01;99605.28;;;18.88;100.00
39341;BME280;25059;52.132;21.062;2023-09-19T02:52:47;99612.44;;;18.88;100.00
39341;BME280;25059;52.132;21.062;2023-09-19T02:55:33;99615.69;;;18.91;100.00
39341;BME280;25059;52.132;21.062;2023-09-19T02:58:18;99607.97;;;18.88;100.00
39341;BME280;25059;52.132;21.062;2023-09-19T03:01:09;99600.22;;;18.85;100.00
39341;BME280;25059;52.132;21.062;2023-09-19T03:03:54;99591.72;;;18.70;100.00
39341;BME280;25059;52.132;21.062;2023-09-19T03:06:39;99589.59;;;18.64;100.00
39341;BME280;25059;52.132;21.062;2023-09-19T03:09:24;99595.66;;;18.55;100.00
39341;BME280;25059;52.132;21.062;2023-09-19T03:12:08;99575.31;;;18.54;100.00
39341;BME280;25059;52.132;21.062;2023-09-19T03:14:53;99583.56;;;18.51;100.00
39341;BME280;25059;52.132;21.062;2023-09-19T03:17:38;99595.38;;;18.58;100.00
39341;BME280;25059;52.132;21.062;2023-09-19T03:20:27;99578.16;;;18.42;100.00
39341;BME280;25059;52.132;21.062;2023-09-19T03:23:12;99595.19;;;18.50;100.00
39341;BME280;25059;52.132;21.062;2023-09-19T03:25:57;99579.28;;;18.39;100.00
39341;BME280;25059;52.132;21.062;2023-09-19T03:28:43;99598.09;;;18.47;100.00
39341;BME280;25059;52.132;21.062;2023-09-19T03:31:28;99587.34;;;18.49;100.00
39341;BME280;25059;52.132;21.062;2023-09-19T03:34:13;99584.41;;;18.52;100.00
39341;BME280;25059;52.132;21.062;2023-09-19T03:36:57;99580.19;;;18.49;100.00
39341;BME280;25059;52.132;21.062;2023-09-19T03:39:42;99588.50;;;18.56;100.00
39341;BME280;25059;52.132;21.062;2023-09-19T03:42:26;99579.00;;;18.42;100.00
39341;BME280;25059;52.132;21.062;2023-09-19T03:45:11;99583.44;;;18.53;100.00
39341;BME280;25059;52.132;21.062;2023-09-19T03:47:56;99582.03;;;18.69;100.00
39341;BME280;25059;52.132;21.062;2023-09-19T03:50:41;99588.41;;;18.78;100.00
39341;BME280;25059;52.132;21.062;2023-09-19T03:53:28;99588.28;;;18.80;100.00
39341;BME280;25059;52.132;21.062;2023-09-19T03:56:12;99560.63;;;18.71;100.00
39341;BME280;25059;52.132;21.062;2023-09-19T03:58:57;99558.22;;;18.68;100.00
39341;BME280;25059;52.132;21.062;2023-09-19T04:01:41;99580.88;;;18.83;100.00
39341;BME280;25059;52.132;21.062;2023-09-19T04:04:25;99569.75;;;18.78;100.00
39341;BME280;25059;52.132;21.062;2023-09-19T04:07:10;99562.34;;;18.82;100.00
39341;BME280;25059;52.132;21.062;2023-09-19T04:09:55;99559.22;;;18.97;100.00
39341;BME280;25059;52.132;21.062;2023-09-19T04:12:39;99563.38;;;18.90;100.00
39341;BME280;25059;52.132;21.062;2023-09-19T04:15:24;99541.91;;;18.82;100.00
39341;BME280;25059;52.132;21.062;2023-09-19T04:18:09;99533.41;;;18.67;100.00
39341;BME280;25059;52.132;21.062;2023-09-19T04:20:54;99550.72;;;18.83;100.00
39341;BME280;25059;52.132;21.062;2023-09-19T04:23:40;99539.69;;;18.66;100.00
39341;BME280;25059;52.132;21.062;2023-09-19T04:26:25;99552.53;;;18.82;100.00
39341;BME280;25059;52.132;21.062;2023-09-19T04:29:10;99546.78;;;18.77;100.00
39341;BME280;25059;52.132;21.062;2023-09-19T04:31:55;99539.22;;;18.82;100.00
39341;BME280;25059;52.132;21.062;2023-09-19T04:34:41;99536.56;;;18.82;100.00
39341;BME280;25059;52.132;21.062;2023-09-19T04:37:26;99541.63;;;18.85;100.00
39341;BME280;25059;52.132;21.062;2023-09-19T04:40:10;99510.47;;;18.76;100.00
39341;BME280;25059;52.132;21.062;2023-09-19T04:42:56;99513.72;;;18.80;100.00
39341;BME280;25059;52.132;21.062;2023-09-19T04:45:41;99532.13;;;18.92;100.00
39341;BME280;25059;52.132;21.062;2023-09-19T04:48:44;99534.47;;;19.16;100.00
39341;BME280;25059;52.132;21.062;2023-09-19T04:51:29;99524.88;;;19.34;100.00
39341;BME280;25059;52.132;21.062;2023-09-19T04:54:18;99527.13;;;19.39;100.00
39341;BME280;25059;52.132;21.062;2023-09-19T04:57:03;99518.28;;;19.39;100.00
39341;BME280;25059;52.132;21.062;2023-09-19T04:59:50;99525.31;;;19.40;100.00
39341;BME280;25059;52.132;21.062;2023-09-19T05:02:34;99519.41;;;19.36;100.00
39341;BME280;25059;52.132;21.062;2023-09-19T05:05:19;99514.91;;;19.36;100.00
39341;BME280;25059;52.132;21.062;2023-09-19T05:08:04;99523.47;;;19.40;100.00
39341;BME280;25059;52.132;21.062;2023-09-19T05:10:49;99507.84;;;19.56;100.00
39341;BME280;25059;52.132;21.062;2023-09-19T05:13:34;99516.84;;;19.75;100.00
39341;BME280;25059;52.132;21.062;2023-09-19T05:16:20;99504.38;;;19.85;100.00
39341;BME280;25059;52.132;21.062;2023-09-19T05:19:04;99517.28;;;20.09;100.00
39341;BME280;25059;52.132;21.062;2023-09-19T05:21:49;99512.09;;;20.17;100.00
39341;BME280;25059;52.132;21.062;2023-09-19T05:24:34;99514.19;;;20.04;100.00
39341;BME280;25059;52.132;21.062;2023-09-19T05:27:19;99516.44;;;20.08;100.00
39341;BME280;25059;52.132;21.062;2023-09-19T05:30:05;99518.69;;;20.13;100.00
39341;BME280;25059;52.132;21.062;2023-09-19T05:33:00;99515.16;;;20.31;100.00
39341;BME280;25059;52.132;21.062;2023-09-19T05:35:47;99504.22;;;20.25;100.00
39341;BME280;25059;52.132;21.062;2023-09-19T05:38:32;99502.25;;;20.17;100.00
39341;BME280;25059;52.132;21.062;2023-09-19T05:41:17;99499.16;;;20.12;100.00
39341;BME280;25059;52.132;21.062;2023-09-19T05:44:03;99510.25;;;20.46;100.00
39341;BME280;25059;52.132;21.062;2023-09-19T05:46:48;99505.47;;;20.30;100.00
39341;BME280;25059;52.132;21.062;2023-09-19T05:49:32;99489.88;;;20.45;100.00
39341;BME280;25059;52.132;21.062;2023-09-19T05:52:17;99486.75;;;20.59;100.00
39341;BME280;25059;52.132;21.062;2023-09-19T05:55:05;99485.03;;;20.68;100.00
39341;BME280;25059;52.132;21.062;2023-09-19T05:57:52;99488.63;;;20.86;100.00
39341;BME280;25059;52.132;21.062;2023-09-19T06:00:37;99475.81;;;20.90;100.00
39341;BME280;25059;52.132;21.062;2023-09-19T06:03:23;99501.28;;;21.31;100.00
39341;BME280;25059;52.132;21.062;2023-09-19T06:06:09;99473.59;;;21.13;100.00
39341;BME280;25059;52.132;21.062;2023-09-19T06:09:00;99476.34;;;21.58;100.00
39341;BME280;25059;52.132;21.062;2023-09-19T06:12:26;99499.44;;;21.77;100.00
39341;BME280;25059;52.132;21.062;2023-09-19T06:19:55;99489.88;;;21.74;100.00
39341;BME280;25059;52.132;21.062;2023-09-19T06:22:49;99500.13;;;21.79;100.00
39341;BME280;25059;52.132;21.062;2023-09-19T06:25:55;99496.00;;;21.84;100.00
39341;BME280;25059;52.132;21.062;2023-09-19T06:28:43;99510.78;;;22.06;100.00
39341;BME280;25059;52.132;21.062;2023-09-19T06:31:30;99521.94;;;22.19;100.00
39341;BME280;25059;52.132;21.062;2023-09-19T06:34:24;99529.56;;;22.50;100.00
39341;BME280;25059;52.132;21.062;2023-09-19T06:37:10;99535.38;;;22.45;100.00
39341;BME280;25059;52.132;21.062;2023-09-19T06:39:56;99532.94;;;22.34;100.00
39341;BME280;25059;52.132;21.062;2023-09-19T06:42:46;99560.81;;;21.78;100.00
39341;BME280;25059;52.132;21.062;2023-09-19T06:45:36;99551.47;;;22.10;100.00
39341;BME280;25059;52.132;21.062;2023-09-19T06:48:26;99541.59;;;22.46;100.00
39341;BME280;25059;52.132;21.062;2023-09-19T06:51:11;99552.16;;;22.73;100.00
39341;BME280;25059;52.132;21.062;2023-09-19T06:54:05;99541.22;;;22.84;100.00
39341;BME280;25059;52.132;21.062;2023-09-19T06:56:49;99542.69;;;23.05;100.00
39341;BME280;25059;52.132;21.062;2023-09-19T06:59:34;99540.81;;;23.31;100.00
39341;BME280;25059;52.132;21.062;2023-09-19T07:24:07;99510.28;;;23.82;100.00
39341;BME280;25059;52.132;21.062;2023-09-19T07:27:58;99569.13;;;24.91;100.00
39341;BME280;25059;52.132;21.062;2023-09-19T07:30:47;99576.78;;;25.35;100.00
39341;BME280;25059;52.132;21.062;2023-09-19T07:33:34;99574.44;;;25.32;100.00
39341;BME280;25059;52.132;21.062;2023-09-19T07:36:19;99560.41;;;24.97;100.00
39341;BME280;25059;52.132;21.062;2023-09-19T07:39:08;99567.97;;;24.69;100.00
39341;BME280;25059;52.132;21.062;2023-09-19T07:41:58;99533.34;;;24.26;100.00
39341;BME280;25059;52.132;21.062;2023-09-19T07:44:55;99575.28;;;24.02;100.00
39341;BME280;25059;52.132;21.062;2023-09-19T07:47:55;99579.38;;;24.31;100.00
39341;BME280;25059;52.132;21.062;2023-09-19T07:50:55;99581.91;;;24.65;100.00
39341;BME280;25059;52.132;21.062;2023-09-19T08:02:39;99589.47;;;24.45;100.00
39341;BME280;25059;52.132;21.062;2023-09-19T08:10:28;99585.91;;;25.18;100.00
39341;BME280;25059;52.132;21.062;2023-09-19T08:13:40;99573.03;;;25.44;100.00
39341;BME280;25059;52.132;21.062;2023-09-19T08:16:31;99585.16;;;25.87;100.00
39341;BME280;25059;52.132;21.062;2023-09-19T08:19:28;99585.06;;;26.34;100.00
39341;BME280;25059;52.132;21.062;2023-09-19T08:22:15;99573.44;;;25.72;100.00
39341;BME280;25059;52.132;21.062;2023-09-19T08:25:03;99589.28;;;24.87;100.00
39341;BME280;25059;52.132;21.062;2023-09-19T08:27:54;99567.81;;;24.55;100.00
39341;BME280;25059;52.132;21.062;2023-09-19T08:30:55;99592.84;;;24.39;100.00
39341;BME280;25059;52.132;21.062;2023-09-19T08:33:55;99604.09;;;24.83;100.00
39341;BME280;25059;52.132;21.062;2023-09-19T08:36:58;99604.44;;;24.47;100.00
39341;BME280;25059;52.132;21.062;2023-09-19T08:39:59;99589.88;;;24.00;100.00
39341;BME280;25059;52.132;21.062;2023-09-19T08:42:51;99596.25;;;23.99;100.00
39341;BME280;25059;52.132;21.062;2023-09-19T08:45:38;99580.22;;;23.65;100.00
39341;BME280;25059;52.132;21.062;2023-09-19T08:49:19;99591.09;;;24.13;100.00
39341;BME280;25059;52.132;21.062;2023-09-19T09:01:48;99582.09;;;24.71;100.00
39341;BME280;25059;52.132;21.062;2023-09-19T09:05:56;99566.16;;;23.79;100.00
39341;BME280;25059;52.132;21.062;2023-09-19T09:09:01;99584.69;;;24.06;100.00
39341;BME280;25059;52.132;21.062;2023-09-19T09:11:57;99605.72;;;23.69;100.00
39341;BME280;25059;52.132;21.062;2023-09-19T09:14:50;99611.31;;;23.49;100.00
39341;BME280;25059;52.132;21.062;2023-09-19T09:17:35;99622.28;;;23.30;100.00
39341;BME280;25059;52.132;21.062;2023-09-19T09:20:25;99611.28;;;23.41;100.00
39341;BME280;25059;52.132;21.062;2023-09-19T09:23:21;99630.91;;;23.42;100.00
39341;BME280;25059;52.132;21.062;2023-09-19T09:26:41;99618.00;;;23.45;100.00
39341;BME280;25059;52.132;21.062;2023-09-19T09:29:49;99626.66;;;23.57;100.00
39341;BME280;25059;52.132;21.062;2023-09-19T09:32:34;99633.69;;;23.32;100.00
39341;BME280;25059;52.132;21.062;2023-09-19T09:35:30;99612.50;;;22.95;100.00
39341;BME280;25059;52.132;21.062;2023-09-19T09:38:45;99633.50;;;23.00;100.00
39341;BME280;25059;52.132;21.062;2023-09-19T09:41:41;99660.06;;;22.40;100.00
39341;BME280;25059;52.132;21.062;2023-09-19T09:44:28;99664.38;;;22.50;100.00
39341;BME280;25059;52.132;21.062;2023-09-19T09:55:27;99649.97;;;20.66;100.00
39341;BME280;25059;52.132;21.062;2023-09-19T09:58:17;99707.31;;;20.52;100.00
39341;BME280;25059;52.132;21.062;2023-09-19T10:01:50;99725.03;;;20.44;100.00
39341;BME280;25059;52.132;21.062;2023-09-19T10:04:39;59652.63;;;-144.39;100.00
39341;BME280;25059;52.132;21.062;2023-09-19T10:07:36;59652.63;;;-144.39;100.00
39341;BME280;25059;52.132;21.062;2023-09-19T10:10:43;59652.63;;;-144.39;100.00
39341;BME280;25059;52.132;21.062;2023-09-19T10:13:31;59652.63;;;-144.39;100.00
39341;BME280;25059;52.132;21.062;2023-09-19T10:16:30;59652.63;;;-144.39;100.00
39341;BME280;25059;52.132;21.062;2023-09-19T10:19:54;59652.63;;;-144.39;100.00
39341;BME280;25059;52.132;21.062;2023-09-19T10:22:42;59652.63;;;-144.39;100.00
39341;BME280;25059;52.132;21.062;2023-09-19T10:25:28;59652.63;;;-144.39;100.00
39341;BME280;25059;52.132;21.062;2023-09-19T10:28:16;59652.63;;;-144.39;100.00
39341;BME280;25059;52.132;21.062;2023-09-19T10:31:12;59652.63;;;-144.39;100.00
39341;BME280;25059;52.132;21.062;2023-09-19T10:38:27;59652.63;;;-144.39;100.00
39341;BME280;25059;52.132;21.062;2023-09-19T10:41:40;59652.63;;;-144.39;100.00
39341;BME280;25059;52.132;21.062;2023-09-19T10:48:34;59652.63;;;-144.39;100.00
39341;BME280;25059;52.132;21.062;2023-09-19T10:56:01;59652.63;;;-144.39;100.00
39341;BME280;25059;52.132;21.062;2023-09-19T11:06:12;59652.63;;;-144.39;100.00
39341;BME280;25059;52.132;21.062;2023-09-19T11:09:07;59652.63;;;-144.39;100.00
39341;BME280;25059;52.132;21.062;2023-09-19T11:12:01;59652.63;;;-144.39;100.00
39341;BME280;25059;52.132;21.062;2023-09-19T11:14:47;59652.63;;;-144.39;100.00
39341;BME280;25059;52.132;21.062;2023-09-19T11:17:47;59652.63;;;-144.39;100.00
39341;BME280;25059;52.132;21.062;2023-09-19T11:27:14;59652.63;;;-144.39;100.00
39341;BME280;25059;52.132;21.062;2023-09-19T11:30:36;59652.63;;;-144.39;100.00
39341;BME280;25059;52.132;21.062;2023-09-19T11:33:43;59652.63;;;-144.39;100.00
39341;BME280;25059;52.132;21.062;2023-09-19T11:49:38;59652.63;;;-144.39;100.00
39341;BME280;25059;52.132;21.062;2023-09-19T11:52:28;59652.63;;;-144.39;100.00
39341;BME280;25059;52.132;21.062;2023-09-19T11:55:28;59652.63;;;-144.39;100.00
39341;BME280;25059;52.132;21.062;2023-09-19T11:58:27;59652.63;;;-144.39;100.00
39341;BME280;25059;52.132;21.062;2023-09-19T12:01:30;59652.63;;;-144.39;100.00
39341;BME280;25059;52.132;21.062;2023-09-19T12:04:41;59652.63;;;-144.39;100.00
39341;BME280;25059;52.132;21.062;2023-09-19T12:07:42;59652.63;;;-144.39;100.00
39341;BME280;25059;52.132;21.062;2023-09-19T12:10:33;59652.63;;;-144.39;100.00
39341;BME280;25059;52.132;21.062;2023-09-19T12:17:18;59652.63;;;-144.39;100.00
39341;BME280;25059;52.132;21.062;2023-09-19T12:20:07;59652.63;;;-144.39;100.00
39341;BME280;25059;52.132;21.062;2023-09-19T12:22:58;59652.63;;;-144.39;100.00
39341;BME280;25059;52.132;21.062;2023-09-19T12:25:44;59652.63;;;-144.39;100.00
39341;BME280;25059;52.132;21.062;2023-09-19T12:32:57;59652.63;;;-144.39;100.00
39341;BME280;25059;52.132;21.062;2023-09-19T12:35:44;59652.63;;;-144.39;100.00
39341;BME280;25059;52.132;21.062;2023-09-19T12:38:36;59652.63;;;-144.39;100.00
39341;BME280;25059;52.132;21.062;2023-09-19T12:41:50;59652.63;;;-144.39;100.00
39341;BME280;25059;52.132;21.062;2023-09-19T12:44:46;59652.63;;;-144.39;100.00
39341;BME280;25059;52.132;21.062;2023-09-19T12:47:34;59652.63;;;-144.39;100.00
39341;BME280;25059;52.132;21.062;2023-09-19T12:50:25;59652.63;;;-144.39;100.00
39341;BME280;25059;52.132;21.062;2023-09-19T12:53:29;59652.63;;;-144.39;100.00
39341;BME280;25059;52.132;21.062;2023-09-19T12:56:19;59652.63;;;-144.39;100.00
39341;BME280;25059;52.132;21.062;2023-09-19T12:59:04;59652.63;;;-144.39;100.00
39341;BME280;25059;52.132;21.062;2023-09-19T13:02:03;59652.63;;;-144.39;100.00
39341;BME280;25059;52.132;21.062;2023-09-19T13:04:57;59652.63;;;-144.39;100.00
39341;BME280;25059;52.132;21.062;2023-09-19T13:07:55;59652.63;;;-144.39;100.00
39341;BME280;25059;52.132;21.062;2023-09-19T13:11:15;59652.63;;;-144.39;100.00
39341;BME280;25059;52.132;21.062;2023-09-19T13:17:09;59652.63;;;-144.39;100.00
39341;BME280;25059;52.132;21.062;2023-09-19T13:20:01;59652.63;;;-144.39;100.00
39341;BME280;25059;52.132;21.062;2023-09-19T13:22:47;59652.63;;;-144.39;100.00
39341;BME280;25059;52.132;21.062;2023-09-19T13:25:42;59652.63;;;-144.39;100.00
39341;BME280;25059;52.132;21.062;2023-09-19T13:32:22;59652.63;;;-144.39;100.00
39341;BME280;25059;52.132;21.062;2023-09-19T13:35:11;59652.63;;;-144.39;100.00
39341;BME280;25059;52.132;21.062;2023-09-19T13:37:56;59652.63;;;-144.39;100.00
39341;BME280;25059;52.132;21.062;2023-09-19T13:40:44;59652.63;;;-144.39;100.00
39341;BME280;25059;52.132;21.062;2023-09-19T13:43:29;59652.63;;;-144.39;100.00
39341;BME280;25059;52.132;21.062;2023-09-19T13:46:14;59652.63;;;-144.39;100.00
39341;BME280;25059;52.132;21.062;2023-09-19T13:49:02;59652.63;;;-144.39;100.00
39341;BME280;25059;52.132;21.062;2023-09-19T13:51:48;59652.63;;;-144.39;100.00
39341;BME280;25059;52.132;21.062;2023-09-19T13:54:33;59652.63;;;-144.39;100.00
39341;BME280;25059;52.132;21.062;2023-09-19T13:57:17;59652.63;;;-144.39;100.00
39341;BME280;25059;52.132;21.062;2023-09-19T14:00:03;59652.63;;;-144.39;100.00
39341;BME280;25059;52.132;21.062;2023-09-19T14:02:50;59652.63;;;-144.39;100.00
39341;BME280;25059;52.132;21.062;2023-09-19T14:05:36;59652.63;;;-144.39;100.00
39341;BME280;25059;52.132;21.062;2023-09-19T14:08:22;59652.63;;;-144.39;100.00
39341;BME280;25059;52.132;21.062;2023-09-19T14:11:08;59652.63;;;-144.39;100.00
39341;BME280;25059;52.132;21.062;2023-09-19T14:13:53;59652.63;;;-144.39;100.00
39341;BME280;25059;52.132;21.062;2023-09-19T14:16:41;59652.63;;;-144.39;100.00
39341;BME280;25059;52.132;21.062;2023-09-19T14:19:26;59652.63;;;-144.39;100.00
39341;BME280;25059;52.132;21.062;2023-09-19T14:22:11;59652.63;;;-144.39;100.00
39341;BME280;25059;52.132;21.062;2023-09-19T14:24:58;59652.63;;;-144.39;100.00
39341;BME280;25059;52.132;21.062;2023-09-19T14:27:44;59652.63;;;-144.39;100.00
39341;BME280;25059;52.132;21.062;2023-09-19T14:30:29;59652.63;;;-144.39;100.00
39341;BME280;25059;52.132;21.062;2023-09-19T14:33:13;59652.63;;;-144.39;100.00
39341;BME280;25059;52.132;21.062;2023-09-19T14:36:07;59652.63;;;-144.39;100.00
39341;BME280;25059;52.132;21.062;2023-09-19T14:38:54;59652.63;;;-144.39;100.00
39341;BME280;25059;52.132;21.062;2023-09-19T14:41:39;59652.63;;;-144.39;100.00
39341;BME280;25059;52.132;21.062;2023-09-19T14:44:26;59652.63;;;-144.39;100.00
39341;BME280;25059;52.132;21.062;2023-09-19T14:47:12;59652.63;;;-144.39;100.00
39341;BME280;25059;52.132;21.062;2023-09-19T14:49:57;59652.63;;;-144.39;100.00
39341;BME280;25059;52.132;21.062;2023-09-19T14:52:42;59652.63;;;-144.39;100.00
39341;BME280;25059;52.132;21.062;2023-09-19T14:55:27;59652.63;;;-144.39;100.00
39341;BME280;25059;52.132;21.062;2023-09-19T14:58:14;59652.63;;;-144.39;100.00
39341;BME280;25059;52.132;21.062;2023-09-19T15:01:09;59652.63;;;-144.39;100.00
39341;BME280;25059;52.132;21.062;2023-09-19T15:03:55;59652.63;;;-144.39;100.00
39341;BME280;25059;52.132;21.062;2023-09-19T15:06:39;59652.63;;;-144.39;100.00
39341;BME280;25059;52.132;21.062;2023-09-19T15:09:24;59652.63;;;-144.39;100.00
39341;BME280;25059;52.132;21.062;2023-09-19T15:12:10;59652.63;;;-144.39;100.00
39341;BME280;25059;52.132;21.062;2023-09-19T15:14:58;59652.63;;;-144.39;100.00
39341;BME280;25059;52.132;21.062;2023-09-19T15:17:43;59652.63;;;-144.39;100.00
39341;BME280;25059;52.132;21.062;2023-09-19T15:20:28;59652.63;;;-144.39;100.00
39341;BME280;25059;52.132;21.062;2023-09-19T15:23:12;59652.63;;;-144.39;100.00
39341;BME280;25059;52.132;21.062;2023-09-19T15:25:57;59652.63;;;-144.39;100.00
39341;BME280;25059;52.132;21.062;2023-09-19T15:28:42;59652.63;;;-144.39;100.00
39341;BME280;25059;52.132;21.062;2023-09-19T15:31:27;59652.63;;;-144.39;100.00
39341;BME280;25059;52.132;21.062;2023-09-19T15:34:11;59652.63;;;-144.39;100.00
39341;BME280;25059;52.132;21.062;2023-09-19T15:36:58;59652.63;;;-144.39;100.00
39341;BME280;25059;52.132;21.062;2023-09-19T15:39:43;59652.63;;;-144.39;100.00
39341;BME280;25059;52.132;21.062;2023-09-19T15:42:29;59652.63;;;-144.39;100.00
39341;BME280;25059;52.132;21.062;2023-09-19T15:45:14;59652.63;;;-144.39;100.00
39341;BME280;25059;52.132;21.062;2023-09-19T15:47:59;59652.63;;;-144.39;100.00
39341;BME280;25059;52.132;21.062;2023-09-19T15:50:44;59652.63;;;-144.39;100.00
39341;BME280;25059;52.132;21.062;2023-09-19T15:53:41;59652.63;;;-144.39;100.00
39341;BME280;25059;52.132;21.062;2023-09-19T15:56:26;59652.63;;;-144.39;100.00
39341;BME280;25059;52.132;21.062;2023-09-19T15:59:11;59652.63;;;-144.39;100.00
39341;BME280;25059;52.132;21.062;2023-09-19T16:01:57;59652.63;;;-144.39;100.00
39341;BME280;25059;52.132;21.062;2023-09-19T16:04:42;59652.63;;;-144.39;100.00
39341;BME280;25059;52.132;21.062;2023-09-19T16:07:28;59652.63;;;-144.39;100.00
39341;BME280;25059;52.132;21.062;2023-09-19T16:10:13;59652.63;;;-144.39;100.00
39341;BME280;25059;52.132;21.062;2023-09-19T16:12:58;59652.63;;;-144.39;100.00
39341;BME280;25059;52.132;21.062;2023-09-19T16:15:42;59652.63;;;-144.39;100.00
39341;BME280;25059;52.132;21.062;2023-09-19T16:18:29;59652.63;;;-144.39;100.00
39341;BME280;25059;52.132;21.062;2023-09-19T16:21:16;59652.63;;;-144.39;100.00
39341;BME280;25059;52.132;21.062;2023-09-19T16:24:03;59652.63;;;-144.39;100.00
39341;BME280;25059;52.132;21.062;2023-09-19T16:26:47;59652.63;;;-144.39;100.00
39341;BME280;25059;52.132;21.062;2023-09-19T16:29:33;59652.63;;;-144.39;100.00
39341;BME280;25059;52.132;21.062;2023-09-19T16:32:17;59652.63;;;-144.39;100.00
39341;BME280;25059;52.132;21.062;2023-09-19T16:35:07;59652.63;;;-144.39;100.00
39341;BME280;25059;52.132;21.062;2023-09-19T16:37:53;59652.63;;;-144.39;100.00
39341;BME280;25059;52.132;21.062;2023-09-19T16:41:07;59652.63;;;-144.39;100.00
39341;BME280;25059;52.132;21.062;2023-09-19T16:43:52;59652.63;;;-144.39;100.00
39341;BME280;25059;52.132;21.062;2023-09-19T16:46:36;59652.63;;;-144.39;100.00